Time;durP1;ratioP1;P1;durP2;ratioP2;P2;SDS_P1;SDS_P2;PMS_P1;PMS_P2;Temp;Humidity;BMP_temperature;BMP_pressure;BME280_temperature;BME280_humidity;BME280_pressure;Samples;Min_cycle;Max_cycle;Signal;HPM_P1;HPM_P2
2022/05/19 12:33:30;;;;;;;;;2.00;2.00;;;;;25.55;46.59;101733.75;5052377;28;49795;-72
2022/05/19 12:36:05;;;;;;;;;2.00;2.00;;;;;25.26;46.62;101653.88;5025102;28;49866;-72
2022/05/19 12:38:43;;;;;;;;;0.00;0.00;;;;;26.33;44.95;101780.06;5029531;28;49735;-70
2022/05/19 12:41:31;;;;;;;;;1.00;1.00;;;;;26.25;44.40;101778.50;5029777;28;50361;-76
2022/05/19 12:43:58;;;;;;;;;0.75;0.75;;;;;25.86;44.60;101701.56;5028452;28;49769;-73
2022/05/19 12:46:32;;;;;;;;;3.00;3.00;;;;;26.31;44.71;101771.16;5044664;28;49966;-73
2022/05/19 12:49:16;;;;;;;;;2.00;2.00;;;;;26.37;44.67;101776.38;5044539;28;49844;-72
2022/05/19 12:52:17;;;;;;;;;0.00;0.00;;;;;26.09;44.85;101722.47;5023798;28;49989;-73
2022/05/19 12:55:29;;;;;;;;;1.00;1.00;;;;;26.17;44.93;101745.53;5036039;28;49917;-75
2022/05/19 12:57:57;;;;;;;;;1.50;1.50;;;;;26.15;44.74;101724.97;5016462;28;49748;-75
2022/05/19 13:00:26;;;;;;;;;1.00;1.00;;;;;26.45;44.90;101779.78;5028500;28;49791;-74
2022/05/19 13:03:02;;;;;;;;;2.00;1.50;;;;;26.08;45.33;101712.63;5016085;28;50099;-74
2022/05/19 13:05:50;;;;;;;;;1.00;1.00;;;;;26.47;44.59;101777.91;5009466;28;49559;-74
2022/05/19 13:08:30;;;;;;;;;2.00;2.00;;;;;26.48;44.55;101768.91;5008572;28;49842;-73
2022/05/19 13:10:57;;;;;;;;;3.00;2.75;;;;;26.23;44.26;101731.00;5028083;28;49786;-74
2022/05/19 13:13:28;;;;;;;;;1.00;1.00;;;;;25.11;43.92;101567.38;5020232;28;50597;-68
2022/05/19 13:15:57;;;;;;;;;1.00;1.00;;;;;26.34;44.47;101750.41;5010613;28;49665;-68
2022/05/19 13:18:30;;;;;;;;;2.00;2.00;;;;;26.63;44.90;101779.22;5009690;28;49765;-68
2022/05/19 13:21:05;;;;;;;;;1.75;1.75;;;;;26.47;45.56;101769.84;5008201;28;50041;-68
2022/05/19 13:23:31;;;;;;;;;2.00;2.00;;;;;26.84;44.96;101783.09;5008996;28;50545;-69
2022/05/19 13:26:27;;;;;;;;;2.00;2.00;;;;;26.59;45.18;101753.31;5008105;28;49828;-68
2022/05/19 13:32:02;;;;;;;;;2.50;2.00;;;;;26.60;44.97;101760.47;5034118;28;49516;-68
2022/05/19 13:34:40;;;;;;;;;1.25;1.25;;;;;26.86;45.12;101783.03;5048313;28;50535;-68
2022/05/19 13:37:06;;;;;;;;;3.50;2.25;;;;;26.63;44.40;101787.28;5048151;28;49638;-68
2022/05/19 13:39:32;;;;;;;;;2.00;2.00;;;;;26.61;45.08;101781.06;5048360;28;49748;-68
2022/05/19 13:42:06;;;;;;;;;1.75;1.00;;;;;26.74;45.66;101782.50;5048684;28;49858;-68
2022/05/19 13:44:42;;;;;;;;;2.00;2.00;;;;;26.85;45.36;101783.97;5034923;28;50627;-68
2022/05/19 13:47:22;;;;;;;;;2.25;1.25;;;;;26.85;45.18;101784.84;5020280;28;49961;-68
2022/05/19 13:49:57;;;;;;;;;3.50;3.50;;;;;26.85;44.54;101781.28;5015780;28;49729;-68
2022/05/19 13:52:27;;;;;;;;;2.00;2.00;;;;;26.29;44.65;101709.31;5015812;28;49919;-68
2022/05/19 13:54:53;;;;;;;;;2.00;2.00;;;;;26.02;45.42;101650.91;5015523;28;49702;-69
2022/05/19 13:57:30;;;;;;;;;3.25;3.25;;;;;26.82;45.20;101790.31;5015561;28;49682;-68
2022/05/19 14:00:08;;;;;;;;;2.50;2.00;;;;;26.92;44.57;101774.75;5015894;28;49610;-69
2022/05/19 14:02:37;;;;;;;;;2.50;1.75;;;;;26.67;45.41;101727.03;5015704;28;49788;-68
2022/05/19 14:05:12;;;;;;;;;3.50;3.50;;;;;26.84;44.36;101769.63;5015244;28;50386;-68
2022/05/19 14:07:39;;;;;;;;;2.50;2.50;;;;;26.80;45.83;101778.72;5028209;28;49822;-68
2022/05/19 14:10:11;;;;;;;;;2.75;2.75;;;;;25.83;44.94;101640.69;5034540;28;49899;-68
2022/05/19 14:12:47;;;;;;;;;5.25;5.25;;;;;26.69;45.25;101786.25;5034459;28;49838;-69
2022/05/19 14:15:15;;;;;;;;;5.50;5.50;;;;;26.68;45.28;101779.09;5013465;28;50862;-69
2022/05/19 14:17:51;;;;;;;;;2.75;2.75;;;;;26.43;45.05;101711.59;5013954;28;49656;-68
2022/05/19 14:20:41;;;;;;;;;3.00;3.00;;;;;26.59;44.53;101738.97;5013648;28;50055;-69
2022/05/19 14:23:17;;;;;;;;;2.75;2.75;;;;;26.80;44.44;101768.81;5033266;28;49851;-68
2022/05/19 14:25:44;;;;;;;;;3.50;3.50;;;;;25.56;44.86;101564.31;5034208;28;50468;-68
2022/05/19 14:28:35;;;;;;;;;3.25;3.25;;;;;26.95;44.66;101774.69;5034283;28;49843;-68
2022/05/19 14:31:15;;;;;;;;;2.00;2.00;;;;;26.97;44.30;101778.19;5033955;28;49493;-68
2022/05/19 14:33:58;;;;;;;;;2.50;2.50;;;;;26.63;43.91;101736.13;5034527;28;49835;-69
2022/05/19 14:36:26;;;;;;;;;3.00;3.00;;;;;26.90;44.74;101773.91;5028535;28;50556;-69
2022/05/19 14:39:01;;;;;;;;;2.25;2.00;;;;;26.72;44.43;101733.16;5028819;28;49781;-68
2022/05/19 14:44:22;;;;;;;;;3.50;2.50;;;;;27.00;43.71;101745.75;5017669;28;49756;-68
2022/05/19 14:47:01;;;;;;;;;3.00;3.00;;;;;26.24;43.30;101607.16;5019846;28;50793;-68
2022/05/19 14:49:32;;;;;;;;;2.75;2.75;;;;;26.84;42.96;101710.34;5002469;28;49686;-69
2022/05/19 14:52:01;;;;;;;;;2.25;2.25;;;;;27.20;43.83;101750.53;5027530;28;49800;-70
2022/05/19 14:54:34;;;;;;;;;2.25;2.25;;;;;26.99;43.61;101700.88;5028291;28;50078;-70
2022/05/19 14:57:06;;;;;;;;;3.50;3.50;;;;;27.53;43.71;101753.94;5018131;28;49936;-70
2022/05/19 14:59:56;;;;;;;;;1.50;1.50;;;;;27.09;42.99;101635.88;5002582;28;49764;-70
2022/05/19 15:02:23;;;;;;;;;2.50;2.50;;;;;27.78;42.20;101741.38;5014689;28;49971;-70
2022/05/19 15:04:49;;;;;;;;;3.00;3.00;;;;;27.59;42.16;101672.78;5016345;28;49836;-69
2022/05/19 15:07:19;;;;;;;;;3.75;3.75;;;;;28.17;41.19;101746.25;5014150;28;49788;-68
2022/05/19 15:09:45;;;;;;;;;1.50;1.50;;;;;28.26;41.47;101764.81;5014796;28;49872;-69
2022/05/19 15:12:10;;;;;;;;;3.00;3.00;;;;;28.30;40.79;101733.25;5020947;28;50049;-70
2022/05/19 15:14:36;;;;;;;;;3.75;3.75;;;;;28.21;40.52;101721.81;5027670;28;49988;-69
2022/05/19 15:17:01;;;;;;;;;1.00;1.00;;;;;28.45;40.57;101730.81;5022483;28;49741;-71
2022/05/19 15:19:27;;;;;;;;;2.75;2.75;;;;;28.43;40.39;101727.31;5019238;28;49791;-74
2022/05/19 15:21:53;;;;;;;;;3.00;2.50;;;;;28.49;40.85;101737.00;5018151;28;49821;-69
2022/05/19 15:24:20;;;;;;;;;5.50;4.00;;;;;28.67;39.40;101752.50;5018246;28;49781;-69
2022/05/19 15:26:46;;;;;;;;;2.75;2.75;;;;;28.62;40.19;101750.91;5022157;28;49803;-69
2022/05/19 15:29:13;;;;;;;;;2.75;2.75;;;;;28.63;40.28;101729.22;5024286;28;49836;-69
2022/05/19 15:31:38;;;;;;;;;5.00;3.00;;;;;28.18;40.63;101640.94;5031011;28;51265;-70
2022/05/19 15:34:04;;;;;;;;;2.50;2.50;;;;;28.94;40.63;101745.13;5020863;28;49813;-70
2022/05/19 15:36:29;;;;;;;;;2.75;2.75;;;;;29.19;39.77;101726.09;5000987;28;52212;-70
2022/05/19 15:38:55;;;;;;;;;1.75;1.75;;;;;30.58;37.84;101729.88;5024708;28;49870;-69
2022/05/19 15:41:20;;;;;;;;;2.00;2.00;;;;;32.91;33.34;101660.63;5023105;28;49775;-69
2022/05/19 15:43:46;;;;;;;;;4.00;3.00;;;;;35.26;28.90;101632.00;5015750;28;49870;-69
2022/05/19 15:46:15;;;;;;;;;3.00;3.00;;;;;37.62;26.04;101746.91;5019985;28;49582;-70
2022/05/19 15:48:41;;;;;;;;;3.50;3.50;;;;;38.81;24.08;101745.63;5019144;28;49752;-70
2022/05/19 15:51:06;;;;;;;;;2.25;2.25;;;;;37.85;23.28;101528.66;5032762;28;49947;-70
2022/05/19 15:53:32;;;;;;;;;2.00;2.00;;;;;38.58;23.22;101692.59;5019956;28;49715;-68
2022/05/19 15:55:57;;;;;;;;;3.00;3.00;;;;;38.75;23.44;101674.75;5013865;28;50686;-69
2022/05/19 15:58:25;;;;;;;;;3.00;3.00;;;;;40.28;22.11;101738.47;5024842;28;50043;-70
2022/05/19 16:00:52;;;;;;;;;3.00;3.00;;;;;41.37;21.00;101715.59;5022411;28;49768;-68
2022/05/19 16:03:20;;;;;;;;;4.25;4.25;;;;;41.34;20.17;101674.56;5022696;28;50197;-74
2022/05/19 16:05:46;;;;;;;;;2.50;2.50;;;;;39.69;22.52;101752.84;5013361;28;49801;-77
2022/05/19 16:08:11;;;;;;;;;4.00;2.00;;;;;39.27;22.04;101622.78;5019636;28;49822;-74
2022/05/19 16:10:40;;;;;;;;;4.00;4.00;;;;;39.77;22.51;101656.84;5015340;28;49806;-76
2022/05/19 16:13:07;;;;;;;;;3.00;3.00;;;;;39.07;23.10;101746.16;5021012;28;50008;-74
2022/05/19 16:15:34;;;;;;;;;5.00;4.00;;;;;38.19;24.78;101761.63;5015625;28;50042;-76
2022/05/19 16:18:00;;;;;;;;;4.00;4.00;;;;;37.58;24.47;101687.00;5016543;28;49829;-73
2022/05/19 16:20:25;;;;;;;;;2.50;2.50;;;;;38.40;23.32;101554.22;5016499;28;49784;-68
2022/05/19 16:22:54;;;;;;;;;3.00;3.00;;;;;38.91;22.31;101616.69;5033937;28;49867;-75
2022/05/19 16:25:26;;;;;;;;;4.00;2.75;;;;;38.67;22.40;101641.59;5032689;28;49795;-71
2022/05/19 16:27:55;;;;;;;;;2.25;2.25;;;;;38.01;24.02;101772.19;5032438;28;49710;-70
2022/05/19 16:30:23;;;;;;;;;3.50;3.25;;;;;36.17;25.67;101773.22;5023165;28;49852;-69
2022/05/19 16:32:49;;;;;;;;;4.00;3.00;;;;;33.08;28.50;101547.19;5022611;28;49820;-70
2022/05/19 16:35:15;;;;;;;;;3.75;3.75;;;;;33.01;30.73;101738.00;5012877;28;50991;-71
2022/05/19 16:37:42;;;;;;;;;5.50;5.00;;;;;31.03;31.93;101558.69;5010606;28;49700;-71
2022/05/19 16:40:11;;;;;;;;;4.75;4.75;;;;;31.10;33.72;101762.66;5012516;28;49746;-72
2022/05/19 16:42:39;;;;;;;;;4.00;4.00;;;;;30.26;35.03;101729.56;5013269;28;49750;-73
2022/05/19 16:45:06;;;;;;;;;3.25;3.25;;;;;29.50;35.72;101685.13;5012838;28;50369;-72
2022/05/19 16:47:31;;;;;;;;;2.50;2.50;;;;;28.14;36.94;101514.25;5019452;28;49905;-71
2022/05/19 16:49:57;;;;;;;;;4.75;4.75;;;;;28.94;37.28;101719.94;5035574;28;49736;-71
2022/05/19 16:52:23;;;;;;;;;3.00;3.00;;;;;27.22;38.30;101539.31;5022180;28;49726;-72
2022/05/19 16:57:41;;;;;;;;;3.00;2.25;;;;;27.30;40.43;101685.47;5010778;28;50016;-72
2022/05/19 17:00:10;;;;;;;;;4.00;4.00;;;;;27.28;40.79;101699.94;5016640;28;49878;-72
2022/05/19 17:02:37;;;;;;;;;4.75;4.75;;;;;27.57;41.03;101775.34;5021973;28;49774;-71
2022/05/19 17:05:04;;;;;;;;;4.50;4.50;;;;;27.05;41.08;101704.28;5020728;28;49671;-72
2022/05/19 17:07:29;;;;;;;;;4.75;4.75;;;;;27.22;41.77;101776.53;5011455;28;49843;-72
2022/05/19 17:09:55;;;;;;;;;6.25;4.75;;;;;25.36;41.61;101453.81;5031498;28;50157;-72
2022/05/19 17:12:20;;;;;;;;;4.75;4.75;;;;;27.09;41.77;101767.94;5010312;28;49785;-72
2022/05/19 17:14:46;;;;;;;;;6.00;6.00;;;;;26.01;41.99;101625.81;5030799;28;51940;-70
2022/05/19 17:17:13;;;;;;;;;5.75;5.75;;;;;26.70;42.45;101718.84;5030864;28;49756;-70
2022/05/19 17:19:39;;;;;;;;;4.75;4.75;;;;;26.84;42.72;101769.63;5024151;28;49669;-71
2022/05/19 17:22:08;;;;;;;;;4.00;4.00;;;;;25.05;42.91;101495.00;5022538;28;49674;-71
2022/05/19 17:24:34;;;;;;;;;6.00;5.00;;;;;25.69;42.75;101600.72;5021590;28;50789;-71
2022/05/19 17:26:59;;;;;;;;;5.75;5.75;;;;;26.40;43.13;101787.09;5015572;28;49991;-75
2022/05/19 17:29:25;;;;;;;;;5.50;5.50;;;;;25.98;43.82;101705.75;5034063;28;49858;-70
2022/05/19 17:31:50;;;;;;;;;8.00;8.00;;;;;25.84;43.61;101682.78;5036346;28;50264;-71
2022/05/19 17:34:16;;;;;;;;;5.75;5.75;;;;;25.85;43.54;101711.44;5017473;28;50933;-71
2022/05/19 17:36:42;;;;;;;;;7.75;7.00;;;;;24.64;43.91;101493.41;5032989;28;49827;-72
2022/05/19 17:39:07;;;;;;;;;5.75;5.75;;;;;25.68;44.24;101724.47;5033267;28;49847;-71
2022/05/19 17:41:33;;;;;;;;;7.75;6.75;;;;;24.76;44.71;101611.22;5031381;28;49816;-71
2022/05/19 17:43:58;;;;;;;;;5.75;5.75;;;;;25.77;44.60;101750.22;5025389;28;52431;-72
2022/05/19 17:46:24;;;;;;;;;7.00;7.00;;;;;24.80;45.20;101646.91;5024895;28;49842;-69
2022/05/19 17:48:51;;;;;;;;;7.75;7.75;;;;;24.24;45.83;101574.84;5033970;28;49851;-71
2022/05/19 17:51:17;;;;;;;;;5.50;5.50;;;;;24.35;46.55;101660.50;5029991;28;49841;-71
2022/05/19 17:53:42;;;;;;;;;5.50;5.50;;;;;24.87;46.28;101777.47;5016967;28;51460;-71
2022/05/19 17:56:12;;;;;;;;;9.50;8.25;;;;;25.20;46.58;101796.47;5008602;28;49819;-71
2022/05/19 17:58:38;;;;;;;;;5.50;5.50;;;;;24.14;46.55;101607.28;5016048;28;50141;-71
2022/05/19 18:01:04;;;;;;;;;6.25;6.25;;;;;24.86;47.14;101780.19;5024337;28;49921;-72
2022/05/19 18:03:29;;;;;;;;;6.25;6.00;;;;;24.39;47.25;101723.03;5015505;28;49872;-71
2022/05/19 18:05:54;;;;;;;;;6.50;5.50;;;;;23.89;47.89;101674.84;5024465;28;49739;-72
2022/05/19 18:08:20;;;;;;;;;3.25;3.00;;;;;24.03;48.20;101712.13;5031002;28;49685;-72
2022/05/19 18:10:48;;;;;;;;;8.75;7.75;;;;;23.43;48.38;101635.47;5024231;28;49761;-72
2022/05/19 18:13:13;;;;;;;;;6.00;6.00;;;;;24.54;48.21;101789.81;5034903;28;50521;-72
2022/05/19 18:18:23;;;;;;;;;10.50;8.00;;;;;23.41;48.32;101594.44;5028507;28;49758;-71
2022/05/19 18:20:59;;;;;;;;;6.00;6.00;;;;;23.65;48.56;101643.16;5024283;28;49616;-74
2022/05/19 18:23:28;;;;;;;;;8.50;6.25;;;;;24.42;48.47;101780.22;5015288;28;50005;-74
2022/05/19 18:25:56;;;;;;;;;3.50;3.50;;;;;23.44;49.06;101700.66;5014877;28;49757;-71
2022/05/19 18:28:24;;;;;;;;;5.75;5.75;;;;;24.25;49.06;101785.00;5015258;28;49828;-73
2022/05/19 18:30:51;;;;;;;;;5.75;5.75;;;;;23.87;48.71;101741.03;5013827;28;50051;-78
2022/05/19 18:33:18;;;;;;;;;4.75;4.50;;;;;22.46;49.03;101493.47;4995602;28;51733;-70
2022/05/19 18:35:44;;;;;;;;;5.25;5.25;;;;;23.41;48.68;101639.97;5014950;28;49849;-71
2022/05/19 18:38:12;;;;;;;;;6.00;6.00;;;;;22.59;48.31;101477.22;5015137;28;49976;-71
2022/05/19 18:46:06;;;;;;;;;3.00;3.00;;;;;24.10;49.41;101804.94;5035822;28;49650;-65
2022/05/19 18:48:31;;;;;;;;;5.00;4.75;;;;;23.89;49.60;101786.59;5034728;28;49808;-70
2022/05/19 18:50:57;;;;;;;;;7.25;5.00;;;;;23.90;49.42;101783.88;5032612;28;49691;-69
2022/05/19 18:53:22;;;;;;;;;4.75;4.75;;;;;23.91;49.87;101807.09;5033668;28;51109;-65
2022/05/19 18:55:48;;;;;;;;;4.00;4.00;;;;;23.54;50.20;101785.34;5034193;28;49836;-67
2022/05/19 18:58:14;;;;;;;;;4.75;4.00;;;;;23.56;50.73;101796.94;5034121;28;49770;-69
2022/05/19 19:00:40;;;;;;;;;6.00;6.00;;;;;23.62;50.55;101798.66;5034172;28;49896;-67
2022/05/19 19:03:05;;;;;;;;;3.75;3.75;;;;;23.70;50.62;101799.44;5033660;28;51541;-67
2022/05/19 19:05:31;;;;;;;;;6.00;6.00;;;;;23.77;50.70;101809.13;5033506;28;49754;-68
2022/05/19 19:07:57;;;;;;;;;6.25;6.25;;;;;23.81;50.29;101799.22;5033892;28;49636;-66
2022/05/19 19:10:23;;;;;;;;;2.75;2.75;;;;;23.76;50.78;101801.13;5034112;28;49536;-69
2022/05/19 19:12:48;;;;;;;;;7.50;5.75;;;;;23.64;50.88;101799.50;5033691;28;49594;-69
2022/05/19 19:15:14;;;;;;;;;4.50;4.00;;;;;23.52;50.94;101789.84;5014737;28;49660;-68
2022/05/19 19:17:39;;;;;;;;;7.00;5.25;;;;;23.39;50.75;101761.50;5014430;28;50279;-76
2022/05/19 19:20:06;;;;;;;;;5.50;3.75;;;;;23.67;50.85;101805.72;5014492;28;49584;-61
2022/05/19 19:22:32;;;;;;;;;4.00;4.00;;;;;23.67;50.85;101799.50;5014538;28;49763;-61
2022/05/19 19:24:58;;;;;;;;;5.25;4.50;;;;;23.43;50.87;101780.16;5014204;28;49782;-64
2022/05/19 19:27:24;;;;;;;;;4.25;4.25;;;;;23.53;50.67;101785.38;5019707;28;50042;-64
2022/05/19 19:29:50;;;;;;;;;5.00;5.00;;;;;23.61;50.72;101799.56;5033631;28;49681;-70
2022/05/19 19:32:16;;;;;;;;;5.25;5.25;;;;;23.74;50.82;101819.00;5032746;28;51410;-66
2022/05/19 19:34:42;;;;;;;;;6.25;6.25;;;;;23.70;50.54;101802.09;5033239;28;49786;-66
2022/05/19 19:37:07;;;;;;;;;6.00;6.00;;;;;23.79;50.27;101807.31;5033139;28;49744;-65
2022/05/19 19:39:33;;;;;;;;;5.50;5.50;;;;;23.80;50.24;101810.88;5032297;28;49621;-67
2022/05/19 19:41:58;;;;;;;;;6.00;4.25;;;;;23.78;50.46;101813.59;5031198;28;52432;-66
2022/05/19 19:44:24;;;;;;;;;5.25;5.25;;;;;23.50;50.52;101764.00;5033210;28;49606;-66
2022/05/19 19:46:50;;;;;;;;;4.00;4.00;;;;;23.67;50.39;101802.16;5033193;28;49765;-67
2022/05/19 19:49:16;;;;;;;;;5.00;4.00;;;;;23.64;50.40;101811.16;5033124;28;49673;-66
2022/05/19 19:54:35;;;;;;;;;2.25;2.25;;;;;23.22;50.38;101751.03;5033069;28;49860;-71
2022/05/19 19:57:08;;;;;;;;;3.25;3.00;;;;;23.53;50.72;101828.25;5027665;28;49827;-78
2022/05/19 19:59:37;;;;;;;;;6.50;4.00;;;;;23.42;50.47;101815.91;5027426;28;49997;-75
2022/05/19 20:02:05;;;;;;;;;7.75;6.00;;;;;23.35;51.32;101833.00;5013609;28;50410;-73
2022/05/19 20:04:31;;;;;;;;;4.75;4.00;;;;;23.37;51.46;101830.31;5027278;28;49803;-82
2022/05/19 20:06:57;;;;;;;;;1.00;1.00;;;;;23.09;51.37;101773.59;5033129;28;49728;-70
2022/05/19 20:09:25;;;;;;;;;6.00;6.00;;;;;23.30;51.76;101842.03;5033194;28;49948;-66
2022/05/19 20:11:53;;;;;;;;;3.00;3.00;;;;;23.24;51.39;101851.03;5032392;28;50364;-65
2022/05/19 20:14:20;;;;;;;;;3.00;2.25;;;;;23.23;51.24;101841.22;5032473;28;49917;-65
2022/05/19 20:16:46;;;;;;;;;4.25;2.75;;;;;22.87;51.16;101806.91;5032758;28;49746;-65
2022/05/19 20:19:11;;;;;;;;;2.75;2.75;;;;;22.99;51.27;101849.59;5032902;28;49959;-67
2022/05/19 20:21:40;;;;;;;;;4.00;2.00;;;;;22.71;51.79;101825.84;5032397;28;50775;-65
2022/05/19 20:24:09;;;;;;;;;3.50;3.50;;;;;22.76;51.25;101853.41;5032793;28;49733;-67
2022/05/19 20:26:36;;;;;;;;;2.00;2.00;;;;;22.05;51.45;101736.53;5032520;28;49758;-65
2022/05/19 20:29:01;;;;;;;;;1.75;0.75;;;;;22.45;51.55;101827.94;5032758;28;49722;-65
2022/05/19 20:31:27;;;;;;;;;4.75;4.00;;;;;22.46;51.21;101830.56;5032088;28;49918;-66
2022/05/19 20:33:53;;;;;;;;;2.00;2.00;;;;;22.50;51.26;101853.75;5032636;28;49915;-65
2022/05/19 20:36:18;;;;;;;;;3.25;3.25;;;;;22.23;51.79;101828.16;5032182;28;49880;-66
2022/05/19 20:38:44;;;;;;;;;2.00;2.00;;;;;22.33;51.46;101858.38;5032852;28;49844;-66
2022/05/19 20:41:09;;;;;;;;;2.50;2.50;;;;;22.26;51.56;101843.28;5032272;28;50116;-65
2022/05/19 20:43:36;;;;;;;;;1.50;1.50;;;;;22.24;51.51;101837.97;5032366;28;49696;-65
2022/05/19 20:46:02;;;;;;;;;2.00;2.00;;;;;22.23;51.49;101838.88;5032620;28;49618;-65
2022/05/19 20:48:27;;;;;;;;;2.00;2.00;;;;;22.05;51.28;101796.22;5032579;28;49567;-67
2022/05/19 20:50:56;;;;;;;;;3.00;1.00;;;;;22.21;51.18;101829.09;5032148;28;49674;-66
2022/05/19 20:53:23;;;;;;;;;4.00;3.00;;;;;22.09;51.08;101840.78;5032980;28;49894;-65
2022/05/19 20:55:48;;;;;;;;;3.75;3.00;;;;;22.23;50.61;101854.91;5035779;28;49717;-62
2022/05/19 20:58:14;;;;;;;;;2.00;2.00;;;;;22.23;50.50;101846.88;5036027;28;50027;-62
2022/05/19 21:00:39;;;;;;;;;1.25;1.25;;;;;22.20;50.36;101854.06;5035585;28;50465;-64
2022/05/19 21:03:05;;;;;;;;;2.25;2.25;;;;;22.12;50.34;101854.13;5035783;28;49720;-63
2022/05/19 21:05:32;;;;;;;;;5.25;2.00;;;;;22.11;50.29;101849.69;5035743;28;49789;-67
2022/05/19 21:07:57;;;;;;;;;0.75;0.50;;;;;22.00;50.46;101849.75;5035860;28;49549;-62
2022/05/19 21:10:23;;;;;;;;;3.75;3.00;;;;;22.05;50.20;101857.72;5035250;28;49765;-66
2022/05/19 21:12:49;;;;;;;;;2.00;1.00;;;;;22.10;49.94;101877.34;5035715;28;49847;-64
2022/05/19 21:15:19;;;;;;;;;1.25;1.00;;;;;22.11;49.81;101875.56;5016580;28;49950;-65
2022/05/19 21:17:45;;;;;;;;;2.00;2.00;;;;;22.09;49.75;101870.19;5029777;28;49802;-67
2022/05/19 21:20:12;;;;;;;;;1.00;1.00;;;;;22.08;49.57;101880.91;5015369;28;50591;-64
2022/05/19 21:22:38;;;;;;;;;1.75;1.75;;;;;22.10;49.83;101880.00;5029179;28;49679;-62
2022/05/19 21:27:48;;;;;;;;;1.00;1.00;;;;;22.06;49.63;101874.66;5035830;28;49671;-65
2022/05/19 21:30:15;;;;;;;;;1.50;1.50;;;;;22.04;49.91;101869.31;5029144;28;50595;-67
2022/05/19 21:32:41;;;;;;;;;2.75;2.00;;;;;21.89;49.82;101854.28;5015861;28;49833;-63
2022/05/19 21:35:08;;;;;;;;;1.75;1.75;;;;;21.95;49.87;101866.72;5015498;28;49893;-63
2022/05/19 21:37:33;;;;;;;;;2.50;1.50;;;;;21.94;49.91;101856.94;5015154;28;50223;-63
2022/05/19 21:39:59;;;;;;;;;1.75;1.75;;;;;21.91;49.38;101871.22;5016042;28;49788;-64
2022/05/19 21:42:24;;;;;;;;;2.25;2.25;;;;;21.87;49.54;101880.16;5016323;28;49759;-62
2022/05/19 21:44:50;;;;;;;;;1.00;1.00;;;;;21.81;49.42;101882.91;5016340;28;49688;-62
2022/05/19 21:47:16;;;;;;;;;1.25;1.25;;;;;21.72;49.23;101866.94;5016281;28;49572;-63
2022/05/19 21:49:42;;;;;;;;;1.25;1.25;;;;;21.73;48.90;101892.75;5015809;28;50347;-62
2022/05/19 21:57:47;;;;;;;;;1.25;1.25;;;;;21.54;49.28;101894.66;5035208;28;49803;-63
2022/05/19 22:00:25;;;;;;;;;0.50;0.50;;;;;21.51;49.35;101883.09;5034687;28;49740;-62
2022/05/19 22:02:52;;;;;;;;;5.25;4.00;;;;;21.46;49.57;101891.16;5034900;28;49594;-62
2022/05/19 22:05:18;;;;;;;;;2.50;0.75;;;;;21.39;50.12;101889.41;5034171;28;49756;-62
2022/05/19 22:07:43;;;;;;;;;3.75;1.75;;;;;21.28;50.27;101875.22;5034843;28;50065;-62
2022/05/19 22:10:12;;;;;;;;;2.50;1.00;;;;;21.29;49.96;101891.25;5034560;28;49934;-63
2022/05/19 22:12:37;;;;;;;;;1.25;1.25;;;;;21.12;50.34;101869.94;5034589;28;49555;-63
2022/05/19 22:15:06;;;;;;;;;1.00;1.00;;;;;21.15;50.69;101880.63;5034684;28;49982;-66
2022/05/19 22:17:32;;;;;;;;;1.25;1.00;;;;;21.23;50.57;101893.94;5035002;28;49724;-62
2022/05/19 22:19:57;;;;;;;;;1.25;1.25;;;;;21.25;50.57;101896.59;5034104;28;49641;-64
2022/05/19 22:22:22;;;;;;;;;2.00;2.00;;;;;21.09;50.92;101880.63;5034546;28;49776;-64
2022/05/19 22:24:48;;;;;;;;;2.00;2.00;;;;;21.13;50.73;101893.09;5034689;28;49808;-63
2022/05/19 22:27:13;;;;;;;;;1.50;1.50;;;;;21.01;50.74;101890.44;5033321;28;50031;-64
2022/05/19 22:29:39;;;;;;;;;1.75;1.75;;;;;21.06;50.61;101891.34;5034319;28;49986;-63
2022/05/19 22:32:06;;;;;;;;;2.00;2.00;;;;;20.98;51.18;101893.16;5034242;28;49899;-63
2022/05/19 22:34:32;;;;;;;;;3.00;3.00;;;;;21.00;51.30;101906.47;5034207;28;49699;-64
2022/05/19 22:36:57;;;;;;;;;3.00;2.00;;;;;21.00;51.01;101883.34;5034298;28;49693;-62
2022/05/19 22:39:22;;;;;;;;;1.75;1.75;;;;;20.91;51.44;101880.72;5034248;28;51435;-63
2022/05/19 22:41:47;;;;;;;;;3.25;1.75;;;;;20.94;51.42;101882.47;5034260;28;49533;-62
2022/05/19 22:44:13;;;;;;;;;2.25;2.25;;;;;20.94;51.42;101880.72;5034383;28;49759;-63
2022/05/19 22:47:37;;;;;;;;;1.00;1.00;;;;;20.88;51.26;101875.41;5034466;28;49920;-63
2022/05/19 22:49:24;;;;;;;;;2.00;2.00;;;;;20.83;51.24;101887.84;5033896;28;49745;-64
2022/05/19 22:51:49;;;;;;;;;1.00;1.00;;;;;20.87;51.59;101878.97;5033735;28;49933;-62
2022/05/19 22:54:15;;;;;;;;;2.00;2.00;;;;;20.76;51.55;101862.09;5034158;28;49866;-66
2022/05/19 22:56:40;;;;;;;;;1.00;1.00;;;;;20.75;51.78;101868.31;5034245;28;49998;-62
2022/05/19 22:59:05;;;;;;;;;1.00;1.00;;;;;20.71;51.69;101877.22;5033898;28;50494;-63
2022/05/19 23:01:31;;;;;;;;;2.50;2.50;;;;;20.62;51.81;101870.13;5033685;28;49826;-62
2022/05/19 23:03:56;;;;;;;;;2.25;2.00;;;;;20.55;52.25;101871.94;5033893;28;49656;-64
2022/05/19 23:06:21;;;;;;;;;1.75;1.75;;;;;20.42;51.97;101858.59;5033831;28;49706;-62
2022/05/19 23:08:47;;;;;;;;;1.50;1.50;;;;;20.46;52.26;101869.31;5033628;28;50614;-62
2022/05/19 23:11:13;;;;;;;;;2.25;1.00;;;;;20.42;52.14;101872.81;5033664;28;49791;-62
2022/05/19 23:13:38;;;;;;;;;1.00;1.00;;;;;20.35;52.41;101863.06;5034148;28;49797;-64
2022/05/19 23:16:06;;;;;;;;;1.00;0.75;;;;;20.15;52.94;101841.75;5033048;28;49797;-62
2022/05/19 23:18:32;;;;;;;;;1.25;1.00;;;;;20.35;52.12;101873.72;5033389;28;49725;-62
2022/05/19 23:20:57;;;;;;;;;2.25;1.00;;;;;20.32;52.32;101873.75;5033381;28;49882;-63
2022/05/19 23:23:22;;;;;;;;;1.00;1.00;;;;;20.30;52.39;101872.84;5033590;28;49895;-65
2022/05/19 23:25:49;;;;;;;;;0.00;0.00;;;;;20.29;52.22;101871.09;5033798;28;49869;-63
2022/05/19 23:28:14;;;;;;;;;1.00;1.00;;;;;20.05;52.16;101816.00;5033402;28;49787;-62
2022/05/19 23:30:40;;;;;;;;;4.50;2.00;;;;;20.30;52.14;101852.41;5033310;28;50153;-62
2022/05/19 23:33:21;;;;;;;;;1.50;1.50;;;;;20.32;51.88;101854.19;5033154;28;49658;-63
2022/05/19 23:36:01;;;;;;;;;3.00;2.00;;;;;20.25;50.54;101843.53;5033207;28;49987;-63
2022/05/19 23:38:28;;;;;;;;;2.25;1.75;;;;;20.25;49.69;101848.84;5033169;28;50370;-62
2022/05/19 23:40:56;;;;;;;;;0.50;0.50;;;;;20.26;49.32;101850.63;5033269;28;49652;-62
2022/05/19 23:43:22;;;;;;;;;2.00;1.75;;;;;20.25;48.88;101853.31;5033322;28;49598;-62
2022/05/19 23:45:49;;;;;;;;;0.00;0.00;;;;;20.15;48.69;101840.88;5033580;28;49625;-62
2022/05/19 23:48:17;;;;;;;;;1.50;1.50;;;;;20.15;48.88;101854.22;5032894;28;49800;-63
2022/05/19 23:50:43;;;;;;;;;1.50;1.50;;;;;20.14;49.14;101855.09;5032919;28;49725;-62
2022/05/19 23:53:08;;;;;;;;;1.25;1.00;;;;;20.15;48.42;101859.53;5033176;28;49696;-62
2022/05/19 23:55:34;;;;;;;;;3.00;2.75;;;;;20.06;48.27;101849.78;5033511;28;49780;-63
2022/05/19 23:57:59;;;;;;;;;1.00;1.00;;;;;20.08;48.15;101848.03;5032940;28;49821;-62
